This is the latest recevied weather packets stored in our database for station/object EA1IRT-1. If no packets are shown the sender has not sent any weather packets the latest 10 day(s).
| Time | Temp. | Humidity | Pressure | Rain* | Wind** | Luminosity | Snow |
|---|---|---|---|---|---|---|---|
| 1778252060 | 19.44° C | 69% | 1007.6 hPa | - | - | - | - |
| 1778251160 | 18.89° C | 73% | 1007.8 hPa | - | - | - | - |
| 1778250260 | 18.89° C | 73% | 1007.9 hPa | - | - | - | - |
| 1778249366 | 18.89° C | 79% | 1008.2 hPa | - | - | - | - |
| 1778248462 | 18.33° C | 83% | 1008.3 hPa | - | - | - | - |
| 1778246660 | 17.22° C | 90% | 1008.6 hPa | - | - | - | - |
| 1778245760 | 17.22° C | 91% | 1008.7 hPa | - | - | - | - |
| 1778244844 | 17.78° C | 81% | 1008.5 hPa | - | - | - | - |
| 1778243984 | 17.22° C | 85% | 1008.6 hPa | - | - | - | - |
| 1778243917 | 17.22° C | 85% | 1008.6 hPa | - | - | - | - |
| 1778243010 | 181.67° C | 100% | - | - | - | - | - |
| 1778242110 | 15.56° C | 100% | 1008.8 hPa | - | - | - | - |
| 1778241210 | 15.56° C | 100% | 1008.8 hPa | - | - | - | - |
| 1778240310 | 15° C | 100% | 1008.5 hPa | - | - | - | - |
| 1778239410 | 14.44° C | 100% | 1009.4 hPa | - | - | - | - |
| 1778238510 | 13.89° C | 100% | 1010.2 hPa | - | - | - | - |
| 1778237617 | 13.89° C | 100% | 1010.3 hPa | - | - | - | - |
| 1778236710 | 13.89° C | 100% | 1010.1 hPa | - | - | - | - |
| 1778235810 | 13.89° C | 100% | 1009.9 hPa | - | - | - | - |
| 1778234910 | 13.89° C | 100% | 1009.7 hPa | - | - | - | - |
| 1778233061 | 12.78° C | 100% | 1009.9 hPa | - | - | - | - |
| 1778232161 | 12.78° C | 100% | 1009.9 hPa | - | - | - | - |
| 1778231268 | 12.78° C | 100% | 1009.9 hPa | - | - | - | - |
| 1778230361 | 12.78° C | 100% | 1009.7 hPa | - | - | - | - |
| 1778228561 | 13.33° C | 100% | 1009.5 hPa | - | - | - | - |
* Rain since midnight (hover to see other rain measurements)
** Current wind speed in m/s (hover to see current wind gust speed)